首页
METAR-TAF:

METAR-TAF

机场 :

St. George Municipal Airport

圣乔治, 犹他州, 美国

纬度: 37-05N, 经度: 113-36W, 海拔: 896米

当前天气观测

该预报发布于38分钟前的23:56 UTC
静风
温度 11°C
湿度 54%
气压 1017 hPa
能見度: 16.1公里
多云层高于6500英尺

METAR: KSGU 212356Z AUTO 00000KT 10SM BKN065 11/02 A3004 RMK AO2 SLP167 T01110022 10111 20089 56005

时间: 17:34 (00:34 UTC)

预报

该预报发布于56分钟前的23:38 UTC
预报有效从22日的 00点(UTC)到 22日的 24点(UTC)
风速4节,风向多变
能見度: 10公里
散云层高于6000英尺

TAF: KSGU 212338Z 2200/2224 VRB04KT P6SM SCT060

超过4000个机场的气象观测和天气预报(METAR&TAF报告)。

可查询的气象台以黄色和红色小点在地图上表示。

将鼠标移到小点上方,可查看气象台名称。

然后点击查看天气观测和预报。

如需切换地图:点击带黑十字的绿色按钮放大地图;点击带横线的绿色按钮缩小地图;或者点击绿色箭头查看邻近地区的地图。


METAR-TAF: